createdAt,value
2019-03-15T00:02:18.556Z,99710.92
2019-03-15T00:07:21.241Z,99713.81
2019-03-15T00:12:23.957Z,99723.64
2019-03-15T00:17:26.647Z,99729.30
2019-03-15T00:22:29.393Z,99735.97
2019-03-15T00:27:32.113Z,99746.45
2019-03-15T00:32:34.891Z,99747.50
2019-03-15T00:37:37.615Z,99741.42
2019-03-15T00:42:40.490Z,99739.10
2019-03-15T00:47:43.229Z,99754.22
2019-03-15T00:52:46.021Z,99755.14
2019-03-15T00:57:48.707Z,99767.70
2019-03-15T01:02:51.413Z,99769.45
2019-03-15T01:07:54.207Z,99756.61
2019-03-15T01:12:56.938Z,99747.98
2019-03-15T01:17:59.627Z,99760.75
2019-03-15T01:23:02.327Z,99761.49
2019-03-15T01:28:06.623Z,99773.13
2019-03-15T01:33:09.366Z,99771.50
2019-03-15T01:38:12.057Z,99767.14
2019-03-15T01:43:14.805Z,99778.80
2019-03-15T01:48:17.547Z,99777.37
2019-03-15T01:53:20.300Z,99780.50
2019-03-15T01:58:23.012Z,99795.45
2019-03-15T02:03:25.715Z,99789.86
2019-03-15T02:08:28.418Z,99790.25
2019-03-15T02:13:31.120Z,99797.91
2019-03-15T02:18:33.844Z,99803.42
2019-03-15T02:23:36.557Z,99803.35
2019-03-15T02:28:39.262Z,99809.42
2019-03-15T02:33:41.952Z,99805.30
2019-03-15T02:38:44.673Z,99797.17
2019-03-15T02:43:47.416Z,99793.84
2019-03-15T02:48:50.094Z,99793.25
2019-03-15T02:53:52.800Z,99796.59
2019-03-15T02:58:55.518Z,99788.59
2019-03-15T03:03:58.248Z,99797.14
2019-03-15T03:09:00.949Z,99805.06
2019-03-15T03:14:04.288Z,99806.78
2019-03-15T03:19:07.170Z,99795.42
2019-03-15T03:24:09.889Z,99800.75
2019-03-15T03:29:12.583Z,99813.84
2019-03-15T03:34:15.299Z,99820.02
2019-03-15T03:39:18.007Z,99822.44
2019-03-15T03:44:20.725Z,99816.80
2019-03-15T03:49:23.449Z,99809.83
2019-03-15T03:54:26.660Z,99818.83
2019-03-15T03:59:29.618Z,99810.37
2019-03-15T04:04:32.422Z,99809.41
2019-03-15T04:09:35.357Z,99812.08
2019-03-15T04:14:38.161Z,99801.17
2019-03-15T04:19:41.868Z,99799.69
2019-03-15T04:24:44.602Z,99797.88
2019-03-15T04:29:47.353Z,99807.20
2019-03-15T04:34:50.043Z,99794.80
2019-03-15T04:39:52.765Z,99800.30
2019-03-15T04:44:55.549Z,99805.08
2019-03-15T04:49:58.243Z,99823.73
2019-03-15T04:55:00.941Z,99821.03
2019-03-15T05:00:04.710Z,99826.34
2019-03-15T05:05:07.436Z,99834.70
2019-03-15T05:10:10.131Z,99833.84
2019-03-15T05:15:12.834Z,99830.38
2019-03-15T05:20:15.551Z,99817.85
2019-03-15T05:25:18.259Z,99815.31
2019-03-15T05:30:20.962Z,99809.55
2019-03-15T05:35:23.685Z,99811.65
2019-03-15T05:40:26.413Z,99811.08
2019-03-15T05:45:29.132Z,99795.98
2019-03-15T05:50:31.825Z,99791.49
2019-03-15T05:55:34.538Z,99790.70
2019-03-15T06:00:37.251Z,99786.08
2019-03-15T06:05:39.956Z,99778.39
2019-03-15T06:10:42.688Z,99772.73
2019-03-15T06:15:45.402Z,99766.94
2019-03-15T06:20:48.107Z,99773.62
2019-03-15T06:25:50.914Z,99774.86
2019-03-15T06:30:53.617Z,99764.43
2019-03-15T06:35:56.326Z,99771.88
2019-03-15T06:40:59.194Z,99776.90
2019-03-15T06:46:02.768Z,99780.84
2019-03-15T06:51:05.465Z,99766.96
2019-03-15T06:56:08.183Z,99757.37
2019-03-15T07:01:10.898Z,99753.08
2019-03-15T07:06:14.404Z,99740.27
2019-03-15T07:11:17.304Z,99728.25
2019-03-15T07:16:20.027Z,99741.73
2019-03-15T07:21:22.735Z,99734.22
2019-03-15T07:26:25.485Z,99729.52
2019-03-15T07:31:28.201Z,99717.47
2019-03-15T07:36:30.904Z,99720.19
2019-03-15T07:41:33.603Z,99712.16
2019-03-15T07:46:36.324Z,99701.72
2019-03-15T07:51:39.030Z,99711.05
2019-03-15T07:56:41.732Z,99707.35
2019-03-15T08:01:44.430Z,99696.27
2019-03-15T08:06:47.158Z,99694.25
2019-03-15T08:11:49.946Z,99687.39
2019-03-15T08:16:52.669Z,99697.27
2019-03-15T08:21:56.710Z,99681.33
2019-03-15T08:26:59.612Z,99680.83
2019-03-15T08:32:02.318Z,99670.32
2019-03-15T08:37:05.133Z,99665.28
2019-03-15T08:42:07.830Z,99672.03
2019-03-15T08:47:10.593Z,99661.60
2019-03-15T08:52:13.385Z,99676.36
2019-03-15T08:57:16.148Z,99676.45
2019-03-15T09:02:18.847Z,99660.37
2019-03-15T09:07:21.545Z,99657.06
2019-03-15T09:12:24.265Z,99648.44
2019-03-15T09:17:26.972Z,99638.83
2019-03-15T09:22:29.712Z,99642.66
2019-03-15T09:27:32.431Z,99628.34
2019-03-15T09:32:35.123Z,99622.17
2019-03-15T09:37:37.837Z,99621.73
2019-03-15T09:42:40.554Z,99606.45
2019-03-15T09:47:43.376Z,99596.20
2019-03-15T09:52:46.135Z,99589.28
2019-03-15T09:57:48.856Z,99581.52
2019-03-15T10:02:51.571Z,99581.36
2019-03-15T10:07:54.288Z,99577.13
2019-03-15T10:13:05.974Z,99560.91
2019-03-15T10:18:01.616Z,99550.92
2019-03-15T10:23:06.243Z,99537.88
2019-03-15T10:28:09.014Z,99518.42
2019-03-15T10:33:11.742Z,99506.77
2019-03-15T10:38:16.693Z,99493.13
2019-03-15T10:43:19.076Z,99479.73
2019-03-15T10:48:25.362Z,99469.53
2019-03-15T10:53:26.407Z,99459.32
2019-03-15T10:58:29.108Z,99469.41
2019-03-15T11:03:31.829Z,99456.73
2019-03-15T11:08:34.547Z,99439.05
2019-03-15T11:13:37.246Z,99421.31
2019-03-15T11:18:39.956Z,99423.02
2019-03-15T11:23:42.669Z,99407.17
2019-03-15T11:28:45.364Z,99406.91
2019-03-15T11:33:48.106Z,99399.66
2019-03-15T11:38:50.801Z,99402.58
2019-03-15T11:43:53.532Z,99399.66
2019-03-15T11:48:56.289Z,99393.30
2019-03-15T11:53:59.033Z,99382.03
2019-03-15T11:59:01.740Z,99355.98
2019-03-15T12:04:04.446Z,99377.66
2019-03-15T12:09:07.646Z,99375.70
2019-03-15T12:14:10.356Z,99384.90
2019-03-15T12:19:13.089Z,99385.14
2019-03-15T12:24:15.786Z,99372.91
2019-03-15T12:29:18.494Z,99361.55
2019-03-15T12:34:21.205Z,99357.94
2019-03-15T12:39:23.927Z,99343.68
2019-03-15T12:44:26.627Z,99346.64
2019-03-15T12:49:29.325Z,99336.64
2019-03-15T12:54:32.052Z,99319.52
2019-03-15T12:59:34.751Z,99329.09
2019-03-15T13:04:37.455Z,99325.94
2019-03-15T13:09:40.155Z,99306.08
2019-03-15T13:14:42.883Z,99300.50
2019-03-15T13:19:55.132Z,99294.46
2019-03-15T13:24:50.214Z,99317.08
2019-03-15T13:29:52.987Z,99297.73
2019-03-15T13:34:55.707Z,99315.69
2019-03-15T13:39:58.407Z,99305.72
2019-03-15T13:45:01.125Z,99299.16
2019-03-15T13:50:04.306Z,99310.67
2019-03-15T13:55:07.142Z,99313.66
2019-03-15T14:00:10.769Z,99315.48
2019-03-15T14:05:13.579Z,99302.80
2019-03-15T14:10:16.411Z,99289.63
2019-03-15T14:15:19.139Z,99311.92
2019-03-15T14:20:21.853Z,99309.17
2019-03-15T14:25:24.652Z,99305.16
2019-03-15T14:30:27.558Z,99314.91
2019-03-15T14:35:30.280Z,99315.65
2019-03-15T14:40:32.999Z,99319.05
2019-03-15T14:45:35.822Z,99322.16
2019-03-15T14:50:38.707Z,99329.70
2019-03-15T14:55:41.430Z,99339.91
2019-03-15T15:00:44.216Z,99341.16
2019-03-15T15:05:47.605Z,99353.06
2019-03-15T15:10:50.646Z,99351.39
2019-03-15T15:16:02.684Z,99355.44
2019-03-15T15:21:07.879Z,99351.11
2019-03-15T15:26:12.127Z,99357.91
2019-03-15T15:31:15.986Z,99358.19
2019-03-15T15:36:19.881Z,99361.39
2019-03-15T15:41:23.775Z,99363.58
2019-03-15T15:46:27.613Z,99385.57
2019-03-15T15:51:31.778Z,99385.43
2019-03-15T15:56:35.554Z,99378.81
2019-03-15T16:01:38.307Z,99401.34
2019-03-15T16:06:41.076Z,99390.41
2019-03-15T16:11:43.784Z,99396.34
2019-03-15T16:16:46.646Z,99390.87
2019-03-15T16:21:49.420Z,99387.19
2019-03-15T16:26:52.151Z,99384.52
2019-03-15T16:31:54.958Z,99403.71
2019-03-15T16:36:57.668Z,99409.95
2019-03-15T16:42:00.735Z,99417.22
2019-03-15T16:47:03.464Z,99427.27
2019-03-15T16:52:06.239Z,99428.27
2019-03-15T16:57:09.002Z,99447.16
2019-03-15T17:02:11.743Z,99457.88
2019-03-15T17:07:14.481Z,99491.16
2019-03-15T17:12:17.328Z,99493.32
2019-03-15T17:17:20.059Z,99523.67
2019-03-15T17:22:22.791Z,99508.33
2019-03-15T17:27:25.506Z,99536.05
2019-03-15T17:32:28.251Z,99546.95
2019-03-15T17:37:31.003Z,99555.39
2019-03-15T17:42:33.749Z,99569.91
2019-03-15T17:47:36.552Z,99583.72
2019-03-15T17:52:39.379Z,99593.93
2019-03-15T17:57:45.457Z,99600.06
2019-03-15T18:02:46.784Z,99627.47
2019-03-15T18:07:49.499Z,99633.48
2019-03-15T18:12:52.212Z,99638.21
2019-03-15T18:17:54.921Z,99645.92
2019-03-15T18:22:57.640Z,99656.13
2019-03-15T18:28:00.353Z,99659.44
2019-03-15T18:33:03.156Z,99681.50
2019-03-15T18:38:05.862Z,99676.93
2019-03-15T18:43:08.575Z,99683.39
2019-03-15T18:48:13.032Z,99700.56
2019-03-15T18:53:15.954Z,99718.39
2019-03-15T18:58:18.709Z,99724.39
2019-03-15T19:03:21.453Z,99726.47
2019-03-15T19:08:24.167Z,99734.77
2019-03-15T19:13:26.880Z,99734.03
2019-03-15T19:18:29.601Z,99735.67
2019-03-15T19:23:33.630Z,99737.11
2019-03-15T19:28:36.554Z,99753.69
2019-03-15T19:33:39.270Z,99770.06
2019-03-15T19:38:42.018Z,99773.34
2019-03-15T19:43:44.791Z,99784.62
2019-03-15T19:48:47.532Z,99784.41
2019-03-15T19:53:50.393Z,99799.86
2019-03-15T19:58:53.957Z,99831.25
2019-03-15T20:03:56.673Z,99838.11
2019-03-15T20:08:59.406Z,99840.44
2019-03-15T20:14:02.229Z,99841.25
2019-03-15T20:19:04.968Z,99859.81
2019-03-15T20:24:07.669Z,99866.42
2019-03-15T20:29:10.368Z,99870.08
2019-03-15T20:34:13.061Z,99880.19
2019-03-15T20:39:15.751Z,99877.06
2019-03-15T20:44:28.420Z,99883.86
2019-03-15T20:49:23.308Z,99893.02
2019-03-15T20:54:26.042Z,99896.06
2019-03-15T20:59:28.758Z,99897.82
2019-03-15T21:04:31.466Z,99908.75
2019-03-15T21:09:34.167Z,99922.41
2019-03-15T21:14:36.886Z,99915.44
2019-03-15T21:19:39.620Z,99938.73
2019-03-15T21:24:42.333Z,99946.91
2019-03-15T21:29:45.050Z,99937.48
2019-03-15T21:34:47.758Z,99965.99
2019-03-15T21:39:50.509Z,99958.41
2019-03-15T21:44:53.192Z,99950.13
2019-03-15T21:49:55.933Z,99973.41
2019-03-15T21:54:58.674Z,99952.45
2019-03-15T22:00:01.396Z,99982.67
2019-03-15T22:05:04.597Z,99987.77
2019-03-15T22:10:08.626Z,99988.41
2019-03-15T22:15:11.556Z,99988.53
2019-03-15T22:20:14.294Z,99994.27
2019-03-15T22:25:17.000Z,99997.64
2019-03-15T22:30:21.847Z,100004.03
2019-03-15T22:35:24.567Z,100016.58
2019-03-15T22:40:27.312Z,100016.61
2019-03-15T22:45:30.101Z,100017.66
2019-03-15T22:50:32.817Z,100023.45
2019-03-15T22:55:35.553Z,100038.55
2019-03-15T23:00:38.977Z,100044.16
2019-03-15T23:05:41.697Z,100047.75
2019-03-15T23:10:47.028Z,100065.94
2019-03-15T23:15:49.065Z,100075.17
2019-03-15T23:20:51.772Z,100081.37
2019-03-15T23:25:54.468Z,100093.27
2019-03-15T23:30:57.196Z,100088.85
2019-03-15T23:35:59.936Z,100094.95
2019-03-15T23:41:02.663Z,100104.02
2019-03-15T23:46:05.373Z,100106.27
2019-03-15T23:51:08.157Z,100115.52
2019-03-15T23:56:10.883Z,100117.96
